Rawlins, WY

6:33 PM MDT on September 02, 2015 (GMT -0600)
Highland Towne | | Change Station
CLOSE
Current Station
Personal Weather Station
Location: Rawlins, WY
Elevation: 6831 ft
Nearby Weather Stations

Elev 6831 ft 41.82 °N, 107.22 °W | Updated 10 minutes ago

Scattered Clouds
Scattered Clouds
82.2 °F
Feels Like 80 °F
N
7.3
Wind Variable Wind from SW

Today
High -- | Low -- °F
--% Chance of Precip.
Yesterday
High -- | Low -- °F
Precip. -- in
6:35 AM 7:40 PM
Waning Gibbous, 76% visible
Pressure 29.78 in
Visibility 10.0 miles
Clouds Scattered Clouds 10000 ft
Heat Index 80 °F
Dew Point 37 °F
Humidity 20%
Rainfall 0.00 in
Snow Depth Not available.
UV 1 out of 12
Pollen 10.10 out of 12
Air Quality Not available.
Flu Activity Not available.
METAR KRWL 022353Z AUTO 21014G26KT 10SM SCT100 27/01 A3009 RMK AO2 PK WND 22026/2344 SLP082 T02670011 10289 20256 56012
Pressure 29.78 in
Visibility 10.0 miles
Clouds Scattered Clouds 10000 ft
Heat Index 80 °F
Dew Point 37 °F
Humidity 20%
Rainfall 0.00 in
Snow Depth Not available.
UV 1 out of 12
Pollen 10.10 out of 12
Air Quality Not available.
Flu Activity Not available.
METAR KRWL 022353Z AUTO 21014G26KT 10SM SCT100 27/01 A3009 RMK AO2 PK WND 22026/2344 SLP082 T02670011 10289 20256 56012

10-Day Weather Forecast

×

Almanac

Astronomy

Sep. 02, 2015 Rise Set
Actual Time
Civil Twilight
Nautical Twilight
Astronomical Twilight
Moon
Length of Visible Light
Length of Day
Tomorrow will be .
, % of the Moon is Illuminated

Today's Extremes

State Highs State Lows

Community

WunderPhotos

Upload Photos

1,851,853 photos uploaded!

WunderBlogs® & News

Nearby

Air Quality

  Air Quality AQ Index Pollutant
Not available.

Snow Depth

Station Depth Elevation

Earthquake Activity

City Distance Mag. Time & Date
Minimum magnitude displayed is 2.5.

Coastal Water Temperatures

Place Temperature

Stations

Nearby Weather Stations

Station Location Temp. Windchill Dew Point Humidity Wind Precip. Elev Updated Type